createdAt,value
2023-03-30T06:20:24.337Z,100.00
2023-03-30T06:30:24.275Z,100.00
2023-03-30T06:40:24.303Z,100.00
2023-03-30T06:50:24.288Z,100.00
2023-03-30T07:00:24.227Z,100.00
2023-03-30T07:10:24.248Z,100.00
2023-03-30T07:20:24.441Z,100.00
2023-03-30T07:30:24.537Z,99.25
2023-03-30T07:40:24.294Z,100.00
2023-03-30T07:50:24.295Z,100.00
2023-03-30T08:00:24.314Z,97.25
2023-03-30T08:10:24.427Z,94.49
2023-03-30T08:20:24.395Z,93.18
2023-03-30T08:30:24.444Z,90.95
2023-03-30T08:40:24.364Z,89.38
2023-03-30T08:50:24.641Z,89.24
2023-03-30T09:00:24.532Z,87.51
2023-03-30T09:10:24.732Z,88.01
2023-03-30T09:20:24.656Z,87.76
2023-03-30T09:30:24.621Z,84.59
2023-03-30T09:40:24.554Z,82.80
2023-03-30T09:50:24.500Z,80.17
2023-03-30T10:00:24.564Z,79.84
2023-03-30T10:10:24.528Z,89.24
2023-03-30T10:20:24.660Z,100.00
2023-03-30T10:30:24.516Z,100.00
2023-03-30T10:40:24.594Z,100.00
2023-03-30T10:50:24.580Z,100.00
2023-03-30T11:00:24.709Z,100.00
2023-03-30T11:10:25.725Z,100.00
2023-03-30T11:20:24.736Z,100.00
2023-03-30T11:30:24.710Z,100.00
2023-03-30T11:40:26.730Z,100.00
2023-03-30T11:50:24.754Z,100.00
2023-03-30T12:00:24.749Z,100.00
2023-03-30T12:10:24.684Z,100.00
2023-03-30T12:20:24.709Z,100.00
2023-03-30T12:30:24.790Z,95.05
2023-03-30T12:40:24.599Z,89.52
2023-03-30T12:50:24.678Z,86.33
2023-03-30T13:00:24.631Z,83.48
2023-03-30T13:10:24.784Z,84.93
2023-03-30T13:20:30.072Z,76.82
2023-03-30T13:30:24.702Z,79.30
2023-03-30T13:40:38.098Z,76.45
2023-03-30T13:50:26.301Z,72.12
2023-03-30T14:00:24.757Z,73.67
2023-03-30T14:10:24.709Z,74.16
2023-03-30T14:20:24.769Z,75.56
2023-03-30T14:30:24.830Z,74.06
2023-03-30T14:40:24.916Z,75.09
2023-03-30T14:50:24.892Z,77.42
2023-03-30T15:00:25.072Z,71.58
2023-03-30T15:10:24.925Z,70.48
2023-03-30T15:20:24.823Z,72.89
2023-03-30T15:30:24.937Z,72.47
2023-03-30T15:40:24.852Z,73.09
2023-03-30T15:50:25.071Z,72.93
2023-03-30T16:00:24.967Z,72.87
2023-03-30T16:10:25.002Z,88.95
2023-03-30T16:20:25.097Z,92.32
2023-03-30T16:30:24.956Z,91.87
2023-03-30T16:40:25.099Z,93.27
2023-03-30T16:50:24.903Z,97.35
2023-03-30T17:00:25.126Z,100.00
2023-03-30T17:10:25.112Z,100.00
2023-03-30T17:20:25.060Z,100.00
2023-03-30T17:30:24.958Z,100.00
2023-03-30T17:40:25.204Z,100.00
2023-03-30T17:50:25.072Z,100.00
2023-03-30T18:00:24.975Z,100.00
2023-03-30T18:10:25.001Z,100.00
2023-03-30T18:20:24.980Z,100.00
2023-03-30T18:30:24.945Z,100.00
2023-03-30T18:40:25.151Z,100.00
2023-03-30T18:50:25.451Z,100.00
2023-03-30T19:00:25.314Z,100.00
2023-03-30T19:10:25.614Z,100.00
2023-03-30T19:20:25.651Z,100.00
